createdAt,value
2019-05-22T00:01:21.847Z,3.60
2019-05-22T00:04:24.922Z,3.40
2019-05-22T00:06:59.214Z,2.47
2019-05-22T00:09:39.932Z,1.95
2019-05-22T00:12:09.350Z,2.35
2019-05-22T00:14:43.177Z,2.92
2019-05-22T00:17:25.721Z,2.52
2019-05-22T00:20:02.804Z,2.63
2019-05-22T00:22:41.528Z,3.47
2019-05-22T00:25:33.083Z,3.12
2019-05-22T00:28:10.516Z,2.35
2019-05-22T00:30:55.641Z,2.50
2019-05-22T00:33:36.207Z,1.98
2019-05-22T00:36:03.753Z,2.15
2019-05-22T00:38:42.222Z,2.33
2019-05-22T00:41:15.670Z,2.30
2019-05-22T00:43:45.705Z,1.87
2019-05-22T00:46:24.083Z,1.72
2019-05-22T00:48:55.350Z,1.37
2019-05-22T00:51:41.355Z,2.33
2019-05-22T00:54:19.393Z,2.00
2019-05-22T00:57:02.519Z,1.90
2019-05-22T00:59:35.426Z,1.65
2019-05-22T01:02:33.916Z,2.30
2019-05-22T01:05:29.203Z,2.65
2019-05-22T01:09:02.724Z,3.00
2019-05-22T01:11:10.406Z,3.20
2019-05-22T01:13:46.817Z,3.75
2019-05-22T01:16:25.022Z,4.40
2019-05-22T01:18:54.536Z,4.37
2019-05-22T01:21:30.230Z,3.20
2019-05-22T01:24:03.501Z,4.00
2019-05-22T01:26:43.834Z,4.20
2019-05-22T01:29:21.789Z,3.52
2019-05-22T01:32:03.687Z,4.08
2019-05-22T01:34:40.963Z,4.47
2019-05-22T01:37:13.716Z,4.25
2019-05-22T01:39:51.013Z,3.90
2019-05-22T01:42:39.881Z,4.00
2019-05-22T01:45:15.953Z,4.05
2019-05-22T01:48:11.269Z,4.67
2019-05-22T01:50:45.120Z,3.50
2019-05-22T01:53:15.609Z,4.12
2019-05-22T01:55:48.681Z,3.80
2019-05-22T01:58:18.418Z,4.65
2019-05-22T02:00:53.190Z,4.50
2019-05-22T02:03:27.843Z,4.53
2019-05-22T02:06:03.488Z,4.62
2019-05-22T02:08:46.063Z,4.28
2019-05-22T02:11:22.025Z,5.05
2019-05-22T02:13:57.835Z,5.17
2019-05-22T02:16:56.186Z,3.80
2019-05-22T02:19:16.467Z,6.00
2019-05-22T02:21:46.175Z,4.83
2019-05-22T02:24:26.779Z,4.67
2019-05-22T02:26:57.042Z,6.40
2019-05-22T02:29:31.693Z,6.40
2019-05-22T02:32:01.174Z,6.90
2019-05-22T02:34:32.079Z,6.55
2019-05-22T02:37:03.121Z,7.65
2019-05-22T02:39:39.794Z,8.00
2019-05-22T02:42:14.644Z,8.30
2019-05-22T02:44:49.277Z,8.70
2019-05-22T02:47:21.637Z,10.18
2019-05-22T02:49:52.773Z,9.05
2019-05-22T02:52:29.977Z,9.88
2019-05-22T02:55:03.744Z,8.75
2019-05-22T02:57:42.569Z,10.00
2019-05-22T03:00:12.622Z,9.75
2019-05-22T03:03:02.719Z,7.60
2019-05-22T03:05:32.190Z,7.03
2019-05-22T03:08:12.487Z,6.90
2019-05-22T03:10:49.388Z,5.85
2019-05-22T03:13:23.889Z,7.12
2019-05-22T03:15:57.033Z,6.27
2019-05-22T03:18:30.522Z,7.37
2019-05-22T03:21:01.699Z,7.62
2019-05-22T03:23:33.450Z,7.37
2019-05-22T03:26:04.198Z,7.70
2019-05-22T03:28:41.899Z,6.42
2019-05-22T03:31:12.894Z,8.20
2019-05-22T03:33:45.750Z,8.08
2019-05-22T03:36:19.528Z,7.78
2019-05-22T03:38:50.709Z,7.20
2019-05-22T03:41:20.883Z,8.15
2019-05-22T03:43:51.068Z,8.43
2019-05-22T03:46:32.118Z,7.83
2019-05-22T03:49:26.085Z,7.85
2019-05-22T03:51:40.591Z,8.80
2019-05-22T03:54:15.565Z,7.80
2019-05-22T03:56:45.477Z,8.78
2019-05-22T03:59:17.053Z,6.95
2019-05-22T04:01:46.578Z,8.28
2019-05-22T04:04:21.715Z,8.40
2019-05-22T04:06:54.541Z,9.30
2019-05-22T04:09:28.171Z,8.90
2019-05-22T04:12:01.002Z,8.85
2019-05-22T04:14:35.620Z,9.28
2019-05-22T04:17:09.726Z,8.40
2019-05-22T04:19:49.226Z,9.38
2019-05-22T04:22:14.275Z,8.23
2019-05-22T04:24:52.466Z,8.38
2019-05-22T04:27:27.351Z,7.83
2019-05-22T04:29:56.884Z,8.53
2019-05-22T04:32:36.997Z,8.58
2019-05-22T04:35:13.977Z,8.68
2019-05-22T04:37:47.835Z,8.35
2019-05-22T04:40:27.237Z,9.03
2019-05-22T04:42:58.740Z,10.40
2019-05-22T04:45:29.235Z,9.15
2019-05-22T04:48:04.451Z,9.20
2019-05-22T04:50:39.119Z,12.82
2019-05-22T04:53:29.863Z,11.73
2019-05-22T04:56:01.096Z,11.50
2019-05-22T04:58:35.956Z,12.35
2019-05-22T05:01:05.649Z,13.40
2019-05-22T05:03:35.430Z,14.23
2019-05-22T05:06:07.053Z,15.48
2019-05-22T05:08:40.864Z,16.25
2019-05-22T05:11:20.645Z,18.23
2019-05-22T05:13:51.904Z,17.35
2019-05-22T05:16:21.475Z,17.73
2019-05-22T05:19:05.832Z,19.85
2019-05-22T05:21:23.080Z,17.23
2019-05-22T05:23:52.912Z,16.25
2019-05-22T05:26:26.245Z,14.78
2019-05-22T05:29:07.505Z,15.23
2019-05-22T05:31:40.309Z,15.75
2019-05-22T05:34:20.177Z,15.85
2019-05-22T05:36:50.609Z,14.83
2019-05-22T05:39:46.554Z,14.98
2019-05-22T05:42:16.186Z,15.75
2019-05-22T05:44:45.721Z,17.27
2019-05-22T05:47:15.412Z,19.75
2019-05-22T05:49:54.224Z,19.15
2019-05-22T05:52:41.012Z,18.17
2019-05-22T05:55:11.815Z,18.00
2019-05-22T05:57:56.589Z,20.05
2019-05-22T06:00:44.506Z,20.32
2019-05-22T06:03:33.656Z,18.75
2019-05-22T06:06:05.450Z,19.82
2019-05-22T06:08:46.310Z,21.57
2019-05-22T06:11:56.457Z,21.68
2019-05-22T06:14:33.610Z,23.70
2019-05-22T06:17:07.833Z,24.35
2019-05-22T06:19:41.071Z,24.15
2019-05-22T06:22:17.593Z,26.35
2019-05-22T06:25:01.842Z,24.95
2019-05-22T06:27:43.315Z,26.80
2019-05-22T06:30:17.748Z,27.77
2019-05-22T06:33:15.104Z,27.58
2019-05-22T06:35:46.078Z,25.45
2019-05-22T06:38:27.427Z,29.37
2019-05-22T06:40:57.605Z,24.55
2019-05-22T06:43:30.200Z,32.17
2019-05-22T06:46:02.876Z,35.08
2019-05-22T06:48:35.572Z,35.15
2019-05-22T06:51:19.203Z,30.97
2019-05-22T06:53:40.608Z,33.48
2019-05-22T06:56:13.444Z,35.63
2019-05-22T06:58:43.452Z,35.38
2019-05-22T07:01:17.210Z,28.70
2019-05-22T07:03:48.534Z,31.75
2019-05-22T07:06:18.541Z,35.25
2019-05-22T07:08:49.992Z,32.42
2019-05-22T07:11:19.465Z,30.23
2019-05-22T07:13:49.479Z,30.00
2019-05-22T07:16:19.526Z,33.25
2019-05-22T07:18:49.276Z,29.02
2019-05-22T07:21:32.047Z,30.10
2019-05-22T07:23:50.480Z,31.65
2019-05-22T07:26:20.133Z,31.17
2019-05-22T07:28:49.719Z,28.42
2019-05-22T07:31:20.103Z,27.80
2019-05-22T07:33:52.870Z,27.02
2019-05-22T07:36:24.187Z,29.25
2019-05-22T07:38:53.777Z,28.12
2019-05-22T07:41:23.603Z,26.50
2019-05-22T07:43:57.298Z,25.75
2019-05-22T07:46:30.846Z,26.23
2019-05-22T07:48:59.613Z,26.82
2019-05-22T07:51:30.440Z,26.82
2019-05-22T07:53:59.957Z,27.82
2019-05-22T07:56:29.869Z,26.52
2019-05-22T07:59:02.297Z,22.95
2019-05-22T08:01:33.504Z,27.35
2019-05-22T08:04:03.964Z,27.65
2019-05-22T08:06:33.640Z,26.70
2019-05-22T08:09:03.784Z,27.75
2019-05-22T08:11:35.265Z,24.55
2019-05-22T08:14:05.544Z,27.17
2019-05-22T08:16:36.505Z,28.83
2019-05-22T08:19:06.161Z,27.87
2019-05-22T08:21:35.761Z,24.85
2019-05-22T08:24:07.053Z,26.42
2019-05-22T08:26:53.279Z,27.35
2019-05-22T08:29:09.552Z,28.50
2019-05-22T08:31:41.128Z,27.13
2019-05-22T08:34:21.139Z,27.00
2019-05-22T08:36:49.337Z,27.07
2019-05-22T08:39:19.113Z,27.50
2019-05-22T08:41:56.184Z,24.77
2019-05-22T08:44:30.295Z,23.77
2019-05-22T08:47:01.172Z,24.30
2019-05-22T08:49:34.406Z,23.73
2019-05-22T08:52:22.829Z,24.07
2019-05-22T08:54:47.311Z,23.30
2019-05-22T08:57:21.299Z,20.90
2019-05-22T08:59:53.961Z,20.95
2019-05-22T09:02:25.065Z,19.40
2019-05-22T09:04:55.318Z,19.90
2019-05-22T09:07:24.955Z,19.48
2019-05-22T09:10:05.441Z,18.77
2019-05-22T09:12:42.209Z,19.32
2019-05-22T09:15:17.551Z,19.50
2019-05-22T09:17:47.470Z,21.02
2019-05-22T09:20:22.298Z,18.85
2019-05-22T09:23:04.969Z,19.20
2019-05-22T09:25:47.290Z,17.95
2019-05-22T09:36:39.810Z,19.07
2019-05-22T09:37:47.413Z,18.92
2019-05-22T09:40:17.393Z,18.35
2019-05-22T09:42:46.933Z,20.05
2019-05-22T09:45:22.652Z,18.05
2019-05-22T09:47:53.216Z,20.43
2019-05-22T09:50:29.504Z,18.37
2019-05-22T09:52:58.300Z,20.15
2019-05-22T09:55:28.815Z,21.60
2019-05-22T09:57:58.245Z,22.22
2019-05-22T10:00:28.816Z,19.17
2019-05-22T10:02:58.661Z,20.70
2019-05-22T10:05:29.343Z,21.70
2019-05-22T10:08:05.169Z,20.77
2019-05-22T10:10:35.019Z,20.48
2019-05-22T10:13:07.050Z,19.73
2019-05-22T10:15:37.603Z,20.97
2019-05-22T10:18:15.200Z,20.80
2019-05-22T10:20:50.270Z,20.23
2019-05-22T10:23:23.051Z,21.27
2019-05-22T10:25:55.743Z,22.22
2019-05-22T10:28:25.467Z,21.17
2019-05-22T10:30:56.768Z,22.60
2019-05-22T10:33:32.131Z,22.35
2019-05-22T10:36:01.646Z,21.17
2019-05-22T10:38:31.245Z,24.90
2019-05-22T10:41:02.023Z,24.77
2019-05-22T10:43:31.612Z,22.40
2019-05-22T10:46:01.125Z,23.30
2019-05-22T10:48:30.917Z,24.70
2019-05-22T10:51:00.544Z,25.05
2019-05-22T10:53:34.182Z,23.30
2019-05-22T10:56:01.514Z,22.32
2019-05-22T10:58:38.156Z,23.05
2019-05-22T11:01:13.150Z,20.77
2019-05-22T11:03:42.801Z,22.55
2019-05-22T11:06:12.423Z,24.05
2019-05-22T11:08:42.605Z,41.20
2019-05-22T11:11:12.966Z,31.17
2019-05-22T11:13:59.351Z,21.02
2019-05-22T11:16:14.477Z,21.48
2019-05-22T11:18:44.247Z,38.08
2019-05-22T11:21:14.713Z,22.75
2019-05-22T11:23:51.814Z,21.93
2019-05-22T11:26:15.312Z,54.35
2019-05-22T11:28:45.234Z,38.78
2019-05-22T11:31:15.356Z,26.68
2019-05-22T11:33:45.544Z,26.50
2019-05-22T11:36:16.690Z,20.32
2019-05-22T11:38:46.627Z,23.45
2019-05-22T11:41:17.539Z,19.67
2019-05-22T11:43:47.547Z,23.90
2019-05-22T11:46:17.407Z,21.25
2019-05-22T11:48:47.903Z,21.85
2019-05-22T11:51:18.886Z,19.82
2019-05-22T11:53:48.425Z,18.73
2019-05-22T11:56:18.101Z,19.02
2019-05-22T11:58:47.815Z,21.68
2019-05-22T12:01:17.339Z,19.12
2019-05-22T12:03:48.954Z,19.23
2019-05-22T12:06:20.349Z,19.15
2019-05-22T12:08:49.984Z,18.92
2019-05-22T12:11:22.598Z,19.20
2019-05-22T12:13:53.913Z,17.32
2019-05-22T12:16:24.274Z,17.00
2019-05-22T12:18:54.398Z,16.70
2019-05-22T12:21:24.328Z,16.85
2019-05-22T12:23:54.384Z,16.90
2019-05-22T12:26:24.007Z,17.40
2019-05-22T12:28:53.538Z,17.52
2019-05-22T12:31:23.726Z,16.82
2019-05-22T12:33:53.521Z,18.92
2019-05-22T12:36:24.812Z,20.50
2019-05-22T12:38:54.630Z,17.40
2019-05-22T12:41:24.549Z,19.80
2019-05-22T12:43:54.375Z,17.17
2019-05-22T12:46:24.116Z,19.45
2019-05-22T12:48:55.322Z,18.95
2019-05-22T12:51:30.698Z,19.15
2019-05-22T12:54:00.777Z,20.85
2019-05-22T12:56:31.268Z,19.75
2019-05-22T12:59:01.380Z,21.45
2019-05-22T13:01:31.439Z,19.37
2019-05-22T13:04:02.559Z,21.17
2019-05-22T13:06:43.708Z,20.08
2019-05-22T13:09:13.581Z,22.02
2019-05-22T13:11:43.876Z,19.85
2019-05-22T13:14:14.148Z,20.32
2019-05-22T13:16:48.875Z,21.35
2019-05-22T13:19:16.292Z,19.62
2019-05-22T13:21:47.962Z,20.45
2019-05-22T13:24:20.434Z,21.80
2019-05-22T13:26:50.992Z,21.73
2019-05-22T13:29:21.479Z,21.93
2019-05-22T13:31:51.241Z,21.97
2019-05-22T13:34:21.837Z,20.50
2019-05-22T13:36:52.689Z,20.05
2019-05-22T13:39:23.395Z,20.97
2019-05-22T13:41:53.320Z,19.92
2019-05-22T13:44:26.708Z,19.20
2019-05-22T13:46:56.884Z,20.68
2019-05-22T13:49:28.463Z,19.67
2019-05-22T13:51:57.977Z,21.77
2019-05-22T13:54:28.099Z,19.23
2019-05-22T13:56:58.652Z,20.60
2019-05-22T13:59:30.788Z,19.25
2019-05-22T14:02:00.512Z,18.95
2019-05-22T14:04:30.120Z,19.77
2019-05-22T14:06:59.995Z,20.30
2019-05-22T14:09:30.560Z,20.35
2019-05-22T14:12:00.154Z,20.00
2019-05-22T14:14:29.679Z,21.15
2019-05-22T14:16:59.191Z,20.45
2019-05-22T14:19:28.737Z,19.25
2019-05-22T14:21:58.420Z,18.73
2019-05-22T14:24:27.967Z,19.20
2019-05-22T14:26:57.639Z,18.90
2019-05-22T14:29:27.240Z,18.85
2019-05-22T14:31:57.080Z,18.35
2019-05-22T14:34:26.846Z,19.70
2019-05-22T14:36:57.044Z,19.67
2019-05-22T14:39:32.629Z,19.05
2019-05-22T14:42:02.406Z,20.23
2019-05-22T14:44:34.101Z,20.68
2019-05-22T14:47:13.121Z,19.77
2019-05-22T14:49:34.875Z,18.15
2019-05-22T14:52:04.885Z,18.37
2019-05-22T14:54:36.322Z,19.87
2019-05-22T14:57:08.618Z,19.48
2019-05-22T14:59:38.237Z,21.17
2019-05-22T15:02:08.196Z,20.55
2019-05-22T15:04:40.965Z,21.12
2019-05-22T15:07:10.568Z,22.65
2019-05-22T15:09:40.073Z,21.50
2019-05-22T15:12:09.626Z,20.97
2019-05-22T15:14:39.217Z,21.30
2019-05-22T15:17:10.173Z,22.50
2019-05-22T15:19:39.749Z,20.75
2019-05-22T15:22:09.525Z,19.98
2019-05-22T15:24:39.641Z,20.40
2019-05-22T15:27:09.350Z,18.95
2019-05-22T15:29:38.792Z,20.37
2019-05-22T15:32:09.200Z,20.17
2019-05-22T15:34:39.716Z,20.30
2019-05-22T15:37:11.037Z,20.20
2019-05-22T15:39:40.923Z,19.37
2019-05-22T15:42:13.557Z,18.98
2019-05-22T15:44:43.216Z,18.55
2019-05-22T15:47:12.937Z,21.65
2019-05-22T15:49:44.389Z,19.12
2019-05-22T15:52:16.166Z,20.95
2019-05-22T15:54:47.456Z,21.30
2019-05-22T15:57:17.210Z,22.35
2019-05-22T15:59:47.757Z,21.80
2019-05-22T16:02:21.892Z,20.48
2019-05-22T16:04:51.718Z,20.25
2019-05-22T16:07:22.520Z,19.10
2019-05-22T16:09:53.077Z,19.73
2019-05-22T16:12:23.245Z,18.87
2019-05-22T16:14:52.919Z,18.25
2019-05-22T16:17:22.983Z,18.75
2019-05-22T16:19:54.120Z,16.90
2019-05-22T16:22:24.031Z,17.57
2019-05-22T16:24:53.483Z,17.92
2019-05-22T16:27:23.967Z,17.07
2019-05-22T16:29:54.649Z,18.17
2019-05-22T16:32:24.251Z,17.45
2019-05-22T16:34:55.108Z,18.80
2019-05-22T16:37:24.945Z,18.45
2019-05-22T16:39:55.592Z,19.40
2019-05-22T16:42:26.846Z,18.02
2019-05-22T16:44:56.725Z,17.80
2019-05-22T16:47:26.186Z,17.82
2019-05-22T16:49:55.707Z,19.02
2019-05-22T16:52:28.279Z,17.35
2019-05-22T16:54:58.567Z,17.35
2019-05-22T16:57:29.276Z,15.50
2019-05-22T16:59:59.724Z,15.18
2019-05-22T17:02:31.975Z,14.43
2019-05-22T17:05:02.401Z,15.05
2019-05-22T17:07:32.331Z,13.80
2019-05-22T17:10:04.791Z,13.53
2019-05-22T17:12:35.411Z,12.98
2019-05-22T17:15:07.926Z,12.33
2019-05-22T17:17:37.460Z,12.00
2019-05-22T17:20:14.733Z,11.63
2019-05-22T17:22:45.189Z,10.88
2019-05-22T17:25:15.342Z,10.55
2019-05-22T17:27:45.834Z,11.03
2019-05-22T17:30:20.773Z,10.53
2019-05-22T17:32:48.805Z,11.38
2019-05-22T17:35:20.362Z,10.28
2019-05-22T17:37:50.164Z,11.10
2019-05-22T17:40:21.021Z,10.15
2019-05-22T17:42:53.287Z,10.78
2019-05-22T17:45:26.234Z,9.75
2019-05-22T17:47:56.368Z,10.30
2019-05-22T17:50:27.849Z,10.75
2019-05-22T17:52:57.901Z,10.20
2019-05-22T17:55:28.832Z,10.10
2019-05-22T17:57:58.646Z,9.60
2019-05-22T18:00:32.712Z,9.90
2019-05-22T18:03:02.869Z,10.23
2019-05-22T18:05:33.435Z,10.00
2019-05-22T18:08:03.524Z,9.65
2019-05-22T18:10:40.167Z,9.63
2019-05-22T18:13:10.834Z,9.55
2019-05-22T18:15:40.776Z,9.93
2019-05-22T18:18:11.372Z,9.45
2019-05-22T18:20:43.620Z,9.38
2019-05-22T18:23:12.617Z,8.58
2019-05-22T18:25:43.864Z,9.30
2019-05-22T18:28:14.844Z,9.65
2019-05-22T18:30:44.625Z,10.28
2019-05-22T18:33:14.424Z,11.00
2019-05-22T18:35:43.970Z,11.30
2019-05-22T18:38:13.508Z,12.37
2019-05-22T18:40:43.072Z,12.80
2019-05-22T18:43:12.752Z,12.98
2019-05-22T18:45:42.442Z,11.60
2019-05-22T18:48:11.932Z,11.88
2019-05-22T18:50:46.047Z,12.65
2019-05-22T18:53:16.048Z,12.85
2019-05-22T18:55:45.491Z,12.68
2019-05-22T18:58:14.958Z,12.88
2019-05-22T19:00:44.944Z,14.35
2019-05-22T19:03:14.905Z,14.20
2019-05-22T19:05:44.607Z,15.35
2019-05-22T19:08:14.186Z,14.33
2019-05-22T19:10:43.871Z,14.68
2019-05-22T19:13:14.598Z,14.10
2019-05-22T19:15:44.331Z,14.90
2019-05-22T19:18:14.847Z,14.35
2019-05-22T19:20:44.497Z,14.78
2019-05-22T19:23:14.084Z,14.23
2019-05-22T19:25:46.639Z,14.35
2019-05-22T19:28:16.228Z,14.20
2019-05-22T19:30:45.764Z,14.45
2019-05-22T19:33:15.508Z,14.30
2019-05-22T19:35:45.117Z,13.40
2019-05-22T19:38:15.070Z,13.72
2019-05-22T19:40:44.653Z,13.32
2019-05-22T19:43:14.337Z,13.18
2019-05-22T19:45:44.545Z,13.90
2019-05-22T19:48:14.937Z,12.85
2019-05-22T19:50:45.845Z,14.23
2019-05-22T19:53:19.344Z,12.58
2019-05-22T19:55:48.747Z,12.47
2019-05-22T19:58:21.781Z,13.35
2019-05-22T20:00:50.559Z,12.82
2019-05-22T20:03:22.732Z,11.90
2019-05-22T20:05:52.708Z,13.18
2019-05-22T20:08:22.420Z,13.25
2019-05-22T20:10:52.401Z,12.65
2019-05-22T20:13:23.622Z,13.88
2019-05-22T20:15:55.168Z,13.50
2019-05-22T20:18:25.193Z,13.90
2019-05-22T20:20:55.949Z,13.35
2019-05-22T20:23:35.093Z,12.35
2019-05-22T20:25:56.668Z,11.85
2019-05-22T20:28:26.728Z,11.10
2019-05-22T20:30:56.580Z,12.18
2019-05-22T20:33:27.055Z,12.95
2019-05-22T20:35:57.025Z,13.70
2019-05-22T20:38:26.552Z,14.23
2019-05-22T20:40:56.078Z,14.35
2019-05-22T20:43:25.683Z,13.65
2019-05-22T20:45:56.859Z,14.78
2019-05-22T20:48:28.442Z,13.43
2019-05-22T20:50:59.642Z,13.65
2019-05-22T20:53:30.937Z,14.18
2019-05-22T20:56:01.045Z,16.25
2019-05-22T20:58:32.454Z,20.45
2019-05-22T21:01:03.422Z,20.08
2019-05-22T21:03:33.358Z,23.50
2019-05-22T21:06:07.739Z,27.87
2019-05-22T21:08:38.213Z,29.00
2019-05-22T21:11:11.794Z,29.95
2019-05-22T21:13:41.242Z,30.30
2019-05-22T21:16:10.937Z,29.65
2019-05-22T21:18:44.898Z,29.82
2019-05-22T21:21:16.117Z,30.72
2019-05-22T21:23:45.796Z,26.07
2019-05-22T21:26:18.037Z,31.77
2019-05-22T21:28:48.593Z,32.33
2019-05-22T21:31:18.200Z,30.05
2019-05-22T21:33:48.209Z,31.37
2019-05-22T21:36:18.977Z,30.20
2019-05-22T21:38:49.142Z,29.80
2019-05-22T21:41:21.204Z,27.65
2019-05-22T21:43:51.998Z,28.50
2019-05-22T21:46:22.422Z,29.72
2019-05-22T21:48:53.697Z,30.90
2019-05-22T21:51:24.780Z,30.55
2019-05-22T21:53:54.779Z,32.15
2019-05-22T21:56:24.381Z,31.23
2019-05-22T21:58:54.373Z,31.68
2019-05-22T22:01:25.541Z,31.30
2019-05-22T22:04:05.468Z,31.20
2019-05-22T22:06:34.995Z,29.75
2019-05-22T22:09:06.278Z,30.30
2019-05-22T22:11:37.466Z,30.12
2019-05-22T22:14:07.318Z,32.67
2019-05-22T22:16:39.768Z,32.05
2019-05-22T22:19:11.075Z,31.95
2019-05-22T22:21:40.681Z,29.77
2019-05-22T22:24:10.769Z,31.75
2019-05-22T22:26:40.777Z,29.95
2019-05-22T22:29:10.580Z,30.80
2019-05-22T22:31:41.011Z,30.27
2019-05-22T22:34:17.444Z,32.63
2019-05-22T22:36:47.439Z,31.52
2019-05-22T22:39:18.597Z,33.78
2019-05-22T22:41:48.074Z,35.88
2019-05-22T22:44:17.591Z,34.40
2019-05-22T22:46:57.710Z,37.20
2019-05-22T22:49:28.108Z,37.48
2019-05-22T22:51:59.172Z,37.93
2019-05-22T22:54:28.690Z,36.35
2019-05-22T22:56:59.063Z,37.33
2019-05-22T22:59:28.885Z,36.98
2019-05-22T23:02:00.654Z,37.28
2019-05-22T23:04:30.816Z,39.30
2019-05-22T23:07:02.974Z,40.83
2019-05-22T23:09:36.682Z,40.10
2019-05-22T23:12:07.477Z,40.52
2019-05-22T23:14:38.446Z,40.35
2019-05-22T23:17:08.714Z,39.30
2019-05-22T23:19:38.581Z,39.33
2019-05-22T23:22:08.669Z,40.10
2019-05-22T23:24:40.215Z,41.92
2019-05-22T23:27:12.683Z,38.35
2019-05-22T23:29:42.326Z,43.02
2019-05-22T23:32:12.453Z,42.95
2019-05-22T23:34:44.106Z,43.52
2019-05-22T23:37:15.145Z,42.53
2019-05-22T23:39:46.186Z,42.15
2019-05-22T23:42:19.231Z,44.73
2019-05-22T23:44:50.606Z,47.05
2019-05-22T23:47:20.349Z,45.98
2019-05-22T23:49:50.563Z,48.65
2019-05-22T23:52:20.665Z,47.93
2019-05-22T23:54:51.461Z,46.20
2019-05-22T23:57:22.754Z,44.75
2019-05-22T23:59:54.259Z,47.13
